Lumi/Jää/Keli Alkaa: 05-05-2021 23:00 Päättyy: 06-05-2021 09:00 Varoitus: Lumi/Jää/Keli Taso: Keltainen info button
suomi:
Liikennesää: Ajokeli on huono lumi- tai räntäsateen vuoksi.

svenska:
Trafikvädret: Väglaget är dåligt p.g.a. snöfall eller snöblandat regn.

english:
Traffic weather warning: Bad road conditions are expected because of snow or sleet. 


Webkamera Lisätietoa Webcam


Varoitus: Lumi/Jää Lisätietoa

rain snow radar


Yksityisiä sääasemia lähellä:

Sääasema Juupajoki

Sääasema Orivesi

Sääasema Muurame

Sääasema Jyväskylä

Sääasema Vihtavuori


Löydät sääaseman tiedot myös:

Finland Weather Exchange

European Weather Network

Weather Underground

AWEKAS

Windy.com



Säätiedot lähimmiltä METAR asemilta

   
EFHA - Halli (Fin-Afb), Finland
Etäisyys asemalta: Kaakko 25 km
Päivitetty: 06.05.2021 01:20
Heikkoa lumisadetta, Pilvistä  
Heikkoa lumisadetta, Pilvistä  
   Tuuli: Itä 4.6 m/s
Tuuli: Itä 4.6 m/s
Lämpötila: 0°C
Tuulen hyytävyys: -4°C
Kastepiste: 0°C
Kosteus: 100%
Ilmanpaine: 999 hPa
Pilvisyys: Pilvistä
Näkyvyys: Enemmän kuin 10 km
Pilvitiedot: Melkein pilvistä 152 m,
Pilvistä 853 m
EFHA 052220Z AUTO 08009KT 9999 -SN BKN005 OVC028 00/M00 Q0999
EFJY - Jyvaskyla (Mil/Civ), Finland
Etäisyys asemalta: Koillinen 75 km
Päivitetty: 06.05.2021 01:20
Heikkoja sadekuuroja, Lumisadetta, Pilvistä  
Heikkoja sadekuuroja, Lumisadetta, Pilvistä  
   Tuuli: Itä 3.1 m/s
Tuuli: Itä 3.1 m/s
Lämpötila: 1°C
Tuulen hyytävyys: -2°C
Kastepiste: 0°C
Kosteus: 93%
Ilmanpaine: 1000 hPa
Pilvisyys: Pilvistä
Näkyvyys: Enemmän kuin 10 km
Pilvitiedot: Pilvistä 457 m
EFJY 052220Z AUTO 09006KT 9999 -SHSN OVC015 01/M00 Q1000
EFTP - Tampere/Pirkkala, Finland
Etäisyys asemalta: Lounas 81 km
Päivitetty: 06.05.2021 01:20
Heikkoa sadetta, Pilvistä  
Heikkoa sadetta, Pilvistä  
   Tuuli: Itä 5.7 m/s
Tuuli: Itä 5.7 m/s
Lämpötila: 1°C
Tuulen hyytävyys: -4°C
Kastepiste: 1°C
Kosteus: 100%
Ilmanpaine: 997 hPa
Pilvisyys: Pilvistä
Näkyvyys: 8 km
Pilvitiedot: Pilvistä 152 m
EFTP 052220Z AUTO 08011KT 8000 -RA OVC005 01/01 Q0997
EFSI - Seinajoki-Ilmajoki, Finland
Etäisyys asemalta: Luode 114 km
Päivitetty: 06.05.2021 01:20
Selkeää  
Selkeää  
   Tuuli: Koillinen 2.6 m/s
Tuuli: Koillinen 2.6 m/s
Lämpötila: 2°C
Tuulen hyytävyys: -1°C
Kastepiste: -7°C
Kosteus: 52%
Ilmanpaine: 1000 hPa
Näkyvyys: Enemmän kuin 10 km
Pilvitiedot: Selkeää
EFSI 052220Z AUTO 05005KT 020V090 CAVOK 02/M07 Q1000
EFMI - Mikkeli, Finland
Etäisyys asemalta: Itäkaakko 147 km
Päivitetty: 28.04.2021 15:50
Ei ajankohtaista tietoa saatavilla
Selkeää  
Selkeää  
   Tuuli: Länsi 4.1 m/s
Tuuli: Länsi 4.1 m/s
Lämpötila: 5°C
Tuulen hyytävyys: 2°C
Kastepiste: -7°C
Kosteus: 42%
Ilmanpaine: 1011 hPa
Näkyvyys: Enemmän kuin 10 km
Pilvitiedot: Selkeää
EFMI 281250Z AUTO 27008KT 250V060 CAVOK 05/M07 Q1011
EFPO - Pori (Mil/Civ), Finland
Etäisyys asemalta: Länsilounas 154 km
Päivitetty: 06.05.2021 01:20
Pilvistä  
Pilvistä  
   Tuuli: Itäkoillinen 5.1 m/s
Tuuli: Itäkoillinen 5.1 m/s
Lämpötila: 2°C
Tuulen hyytävyys: -2°C
Kastepiste: 1°C
Kosteus: 93%
Ilmanpaine: 997 hPa
Pilvisyys: Pilvistä
Näkyvyys: Enemmän kuin 10 km
Pilvitiedot: Pilvistä 244 m
EFPO 052220Z AUTO 06010KT 9999 OVC008 02/01 Q0997
EFUT - Utti (Fin-Afb), Finland
Etäisyys asemalta: Kaakko 180 km
Päivitetty: 06.05.2021 01:20
Heikkoja sadekuuroja, Sade, Pilvistä  
Heikkoja sadekuuroja, Sade, Pilvistä  
   Tuuli: Itä 4.6 m/s
Tuuli: Itä 4.6 m/s
Lämpötila: 2°C
Tuulen hyytävyys: -2°C
Kastepiste: 1°C
Kosteus: 93%
Ilmanpaine: 999 hPa
Pilvisyys: Pilvistä
Näkyvyys: 6 km
Pilvitiedot: Pilvistä 61 m
EFUT 052220Z AUTO 10009KT 6000 -SHRA OVC002 02/01 Q0999
EFVA - Vaasa, Finland
Etäisyys asemalta: Luode 180 km
Päivitetty: 06.05.2021 01:20
Selkeää  
Selkeää  
   Tuuli: Koillinen 3.6 m/s
Tuuli: Koillinen 3.6 m/s
Lämpötila: 3°C
Tuulen hyytävyys: -1°C
Kastepiste: -7°C
Kosteus: 48%
Ilmanpaine: 1001 hPa
Näkyvyys: Enemmän kuin 10 km
Pilvitiedot: Selkeää
EFVA 052220Z AUTO 05007KT CAVOK 03/M07 Q1001
EFHK - Helsinki/Vantaa, Finland
Etäisyys asemalta: Etelä 191 km
Päivitetty: 06.05.2021 01:20
Heikkoja sadekuuroja, Sade, Melkein pilvistä  
Heikkoja sadekuuroja, Sade, Melkein pilvistä  
   Tuuli: Kaakko 3.6 m/s
Tuuli: Kaakko 3.6 m/s
Lämpötila: 5°C
Tuulen hyytävyys: 2°C
Kastepiste: 4°C
Kosteus: 93%
Ilmanpaine: 997 hPa
Pilvisyys: Melkein pilvistä
Näkyvyys: 6 km
Pilvitiedot: Melkein pilvistä 122 m,
Vähäistä pilvisyyttä 762 m
EFHK 052220Z 13007KT 100V180 6000 -SHRA BKN004 FEW025CB 05/04 Q0997 BECMG 8000 BKN004

Alkuperäinen skripti  Saratoga-weather.org Sovitettu myös templatelle  Weerstation Leuven

Laitteet joita käytämme:

Sääasema
Davis VP2

Sääasemaohjelma
Cumulus

Sääaseman palvelin
HP ProBook 6460b

Palveluntarjoaja
Radicenter

Davis VP2

Cumulus

HP ProBook 6460b

Radicenter




Flag Counter Cumulus Top Weather Sites